Time;durP1;ratioP1;P1;durP2;ratioP2;P2;SDS_P1;SDS_P2;PMS_P1;PMS_P2;Temp;Humidity;BMP_temperature;BMP_pressure;BME280_temperature;BME280_humidity;BME280_pressure;Samples;Min_cycle;Max_cycle;Signal;HPM_P1;HPM_P2
2021/10/27 00:00:12;;;;;;;0.40;0.20;;;;;;;12.25;65.46;100991.13;111590;1192;109135;-76
2021/10/27 00:03:03;;;;;;;0.40;0.20;;;;;;;12.29;65.34;100989.58;111458;1193;138539;-74
2021/10/27 00:05:31;;;;;;;0.40;0.20;;;;;;;12.28;65.18;100984.61;111640;1193;95236;-76
2021/10/27 00:07:58;;;;;;;0.40;0.30;;;;;;;12.33;65.04;100983.61;111517;1192;139424;-76
2021/10/27 00:10:26;;;;;;;0.40;0.20;;;;;;;12.35;64.98;100984.98;111532;1193;107523;-76
2021/10/27 00:12:54;;;;;;;0.40;0.20;;;;;;;12.37;64.85;100982.64;111606;1193;109517;-76
2021/10/27 00:15:22;;;;;;;0.40;0.20;;;;;;;12.35;64.70;100992.30;111613;1192;139072;-76
2021/10/27 00:17:50;;;;;;;0.40;0.20;;;;;;;12.27;64.84;100994.80;111609;1193;95438;-75
2021/10/27 00:20:18;;;;;;;0.40;0.20;;;;;;;12.27;64.92;100996.56;111401;1193;138636;-76
2021/10/27 00:22:46;;;;;;;0.40;0.20;;;;;;;12.29;64.85;100998.48;111534;1193;109759;-76
2021/10/27 00:25:13;;;;;;;0.40;0.20;;;;;;;12.28;65.02;101000.83;111664;1196;95172;-76
2021/10/27 00:27:42;;;;;;;0.40;0.30;;;;;;;12.27;64.98;101004.06;111548;1192;137834;-76
2021/10/27 00:30:10;;;;;;;0.40;0.20;;;;;;;12.24;65.02;101002.88;111560;1192;108500;-77
2021/10/27 00:32:38;;;;;;;0.40;0.20;;;;;;;12.20;65.27;101000.99;111510;1192;138630;-75
2021/10/27 00:35:07;;;;;;;0.40;0.20;;;;;;;12.17;65.18;101000.02;111601;1193;94892;-74
2021/10/27 00:37:36;;;;;;;0.40;0.20;;;;;;;12.12;65.43;101000.84;111963;1192;97033;-75
2021/10/27 00:40:05;;;;;;;0.40;0.30;;;;;;;12.10;65.65;101001.59;111520;1192;137747;-75
2021/10/27 00:42:33;;;;;;;0.40;0.30;;;;;;;12.08;65.50;101002.54;111667;1193;109414;-76
2021/10/27 00:45:01;;;;;;;0.40;0.30;;;;;;;12.11;65.42;101004.95;111550;1192;138414;-74
2021/10/27 00:47:29;;;;;;;0.40;0.30;;;;;;;12.10;65.52;101010.50;111537;1192;94912;-76
2021/10/27 00:49:57;;;;;;;0.40;0.20;;;;;;;12.09;65.61;101009.65;111511;1192;139139;-75
2021/10/27 00:52:25;;;;;;;0.40;0.20;;;;;;;12.07;65.41;101006.99;111511;1193;109971;-76
2021/10/27 00:54:53;;;;;;;0.40;0.20;;;;;;;12.13;65.50;101002.42;111641;1192;95047;-76
2021/10/27 00:57:22;;;;;;;0.40;0.30;;;;;;;12.18;65.21;101002.29;111488;1192;138483;-76
2021/10/27 00:59:50;;;;;;;0.40;0.30;;;;;;;12.18;65.19;101000.33;111505;1193;107562;-76
2021/10/27 01:02:19;;;;;;;0.40;0.20;;;;;;;12.17;65.24;100996.63;111548;1192;138724;-75
2021/10/27 01:04:48;;;;;;;0.40;0.20;;;;;;;12.23;65.07;100997.23;111631;1195;95127;-76
2021/10/27 01:07:16;;;;;;;0.40;0.20;;;;;;;12.19;64.92;100997.11;111518;1193;95098;-76
2021/10/27 01:09:44;;;;;;;0.40;0.30;;;;;;;12.14;65.08;100994.39;111537;1193;137688;-77
2021/10/27 01:12:12;;;;;;;0.40;0.30;;;;;;;12.15;64.95;100992.06;111656;1192;108414;-77
2021/10/27 01:14:43;;;;;;;0.40;0.30;;;;;;;12.10;64.87;100993.05;111384;1193;138717;-75
2021/10/27 01:17:14;;;;;;;0.40;0.30;;;;;;;12.07;64.95;100991.35;111732;1192;95633;-76
2021/10/27 01:19:49;;;;;;;0.40;0.30;;;;;;;12.09;64.89;100997.19;111578;1193;107627;-76
2021/10/27 01:22:20;;;;;;;0.40;0.20;;;;;;;12.14;64.65;101000.79;111718;1192;138241;-76
2021/10/27 01:24:48;;;;;;;0.40;0.20;;;;;;;12.16;64.36;101006.09;111912;1192;95826;-76
2021/10/27 01:27:16;;;;;;;0.40;0.30;;;;;;;12.16;64.29;101004.48;111698;1193;138074;-75
2021/10/27 01:29:44;;;;;;;0.40;0.30;;;;;;;12.10;64.25;101007.66;111515;1192;109052;-76
2021/10/27 01:32:24;;;;;;;0.40;0.20;;;;;;;12.09;64.27;101010.89;111456;1192;139508;-76
2021/10/27 01:34:52;;;;;;;0.40;0.30;;;;;;;12.00;64.13;101009.64;111491;1193;94960;-76
2021/10/27 01:37:21;;;;;;;0.40;0.30;;;;;;;11.92;64.54;101010.52;111611;1192;95971;-76
2021/10/27 01:39:49;;;;;;;0.40;0.20;;;;;;;11.88;64.59;101021.98;111439;1193;137737;-75
2021/10/27 01:42:17;;;;;;;0.40;0.20;;;;;;;11.84;64.53;101024.75;111465;1192;109214;-76
2021/10/27 01:44:45;;;;;;;0.40;0.20;;;;;;;11.78;64.61;101026.83;111539;1192;138224;-75
2021/10/27 01:47:14;;;;;;;0.40;0.30;;;;;;;11.68;64.91;101027.04;111620;1192;95390;-76
2021/10/27 01:49:42;;;;;;;0.40;0.30;;;;;;;11.53;65.40;101026.63;111479;1193;108736;-76
2021/10/27 01:52:10;;;;;;;0.40;0.30;;;;;;;11.50;65.64;101023.49;111637;1192;139214;-75
2021/10/27 01:54:40;;;;;;;0.40;0.30;;;;;;;11.50;65.68;101022.77;111855;1193;95273;-77
2021/10/27 01:57:09;;;;;;;0.40;0.20;;;;;;;11.52;65.63;101021.84;111699;1192;138869;-76
2021/10/27 01:59:37;;;;;;;0.40;0.30;;;;;;;11.53;65.51;101020.75;111877;1192;107584;-76
2021/10/27 02:02:05;;;;;;;0.40;0.30;;;;;;;11.55;65.69;101026.05;111469;1193;139267;-77
2021/10/27 02:04:34;;;;;;;0.40;0.30;;;;;;;11.56;65.45;101029.23;111580;1192;95870;-76
2021/10/27 02:07:02;;;;;;;0.40;0.30;;;;;;;11.48;65.55;101030.63;111856;1192;95181;-76
2021/10/27 02:09:31;;;;;;;0.40;0.30;;;;;;;11.39;65.89;101029.73;111709;1193;137543;-76
2021/10/27 02:12:01;;;;;;;0.40;0.30;;;;;;;11.42;65.85;101028.61;111831;1192;108655;-76
2021/10/27 02:14:29;;;;;;;0.40;0.30;;;;;;;11.42;65.95;101023.13;111644;1192;138715;-76
2021/10/27 02:16:57;;;;;;;0.40;0.30;;;;;;;11.47;65.80;101031.56;111837;1192;95479;-77
2021/10/27 02:19:24;;;;;;;0.40;0.30;;;;;;;11.45;65.75;101033.73;111840;1192;109258;-74
2021/10/27 02:21:53;;;;;;;0.40;0.30;;;;;;;11.42;65.92;101035.91;111646;1192;139075;-76
2021/10/27 02:24:21;;;;;;;0.40;0.30;;;;;;;11.41;66.05;101039.33;111558;1192;94971;-76
2021/10/27 02:26:49;;;;;;;0.40;0.30;;;;;;;11.40;66.07;101036.51;111672;1192;138200;-76
2021/10/27 02:29:17;;;;;;;0.40;0.20;;;;;;;11.38;66.11;101037.42;111847;1192;107124;-75
2021/10/27 02:31:45;;;;;;;0.40;0.30;;;;;;;11.33;66.13;101036.09;111786;1192;109474;-75
2021/10/27 02:34:14;;;;;;;0.40;0.30;;;;;;;11.27;66.51;101038.16;111693;1192;137803;-76
2021/10/27 02:36:41;;;;;;;0.40;0.30;;;;;;;11.32;66.36;101039.30;111809;1192;94897;-76
2021/10/27 02:39:10;;;;;;;0.40;0.30;;;;;;;11.36;66.23;101039.41;111447;1193;137830;-77
2021/10/27 02:41:38;;;;;;;0.40;0.30;;;;;;;11.33;66.18;101037.16;111801;1192;109004;-75
2021/10/27 02:44:06;;;;;;;0.40;0.30;;;;;;;11.28;66.36;101040.97;111459;1192;138209;-76
2021/10/27 02:46:34;;;;;;;0.40;0.30;;;;;;;11.26;66.44;101039.60;111784;1192;95428;-76
2021/10/27 02:49:02;;;;;;;0.40;0.30;;;;;;;11.30;66.30;101037.23;111796;1192;108579;-78
2021/10/27 02:51:30;;;;;;;0.40;0.30;;;;;;;11.29;66.38;101033.14;111700;1192;138064;-77
2021/10/27 02:53:57;;;;;;;0.40;0.30;;;;;;;11.31;66.35;101032.57;111771;1192;94902;-78
2021/10/27 02:56:25;;;;;;;0.40;0.30;;;;;;;11.28;66.26;101037.60;111671;1192;137587;-76
2021/10/27 02:58:53;;;;;;;0.40;0.30;;;;;;;11.28;66.32;101038.48;111597;1193;108461;-78
2021/10/27 03:01:22;;;;;;;0.40;0.30;;;;;;;11.27;66.27;101037.27;112039;1192;109434;-76
2021/10/27 03:03:51;;;;;;;0.40;0.30;;;;;;;11.30;66.23;101044.51;111665;1193;138563;-76
2021/10/27 03:06:20;;;;;;;0.40;0.30;;;;;;;11.35;66.19;101045.65;111624;1193;95044;-76
2021/10/27 03:08:48;;;;;;;0.40;0.30;;;;;;;11.34;66.02;101046.73;111696;1192;138126;-76
2021/10/27 03:11:16;;;;;;;0.40;0.30;;;;;;;11.29;66.16;101046.66;111749;1192;108302;-76
2021/10/27 03:13:44;;;;;;;0.40;0.30;;;;;;;11.27;66.12;101051.84;111536;1193;94991;-76
2021/10/27 03:16:12;;;;;;;0.40;0.30;;;;;;;11.23;66.13;101051.39;111702;1192;137896;-76
2021/10/27 03:18:39;;;;;;;0.40;0.30;;;;;;;11.24;66.17;101054.56;111783;1192;107623;-76
2021/10/27 03:21:08;;;;;;;0.40;0.30;;;;;;;11.19;66.27;101057.86;111701;1193;137475;-76
2021/10/27 03:23:36;;;;;;;0.40;0.30;;;;;;;11.17;66.39;101059.13;111829;1192;95126;-75
2021/10/27 03:26:04;;;;;;;0.40;0.30;;;;;;;11.18;66.21;101064.27;111660;1192;138144;-75
2021/10/27 03:28:32;;;;;;;0.40;0.30;;;;;;;11.12;66.39;101065.80;111532;1193;109286;-77
2021/10/27 03:31:00;;;;;;;0.40;0.30;;;;;;;11.14;66.45;101063.63;111735;1192;109373;-75
2021/10/27 03:33:28;;;;;;;0.40;0.30;;;;;;;11.13;66.46;101063.30;111758;1192;138352;-76
2021/10/27 03:35:56;;;;;;;0.50;0.40;;;;;;;11.11;66.37;101062.79;111778;1192;94914;-76
2021/10/27 03:38:23;;;;;;;0.40;0.30;;;;;;;11.09;66.38;101063.36;111720;1192;139350;-76
2021/10/27 03:40:51;;;;;;;0.40;0.30;;;;;;;11.10;66.44;101063.00;111538;1193;109441;-76
2021/10/27 03:43:19;;;;;;;0.40;0.40;;;;;;;11.14;66.40;101065.23;111827;1192;94892;-76
2021/10/27 03:45:47;;;;;;;0.40;0.30;;;;;;;11.06;66.53;101066.61;111450;1193;138043;-75
2021/10/27 03:48:15;;;;;;;0.40;0.30;;;;;;;11.07;66.55;101061.63;111479;1193;108445;-76
2021/10/27 03:50:44;;;;;;;0.40;0.40;;;;;;;11.06;66.55;101065.38;111693;1192;139078;-76
2021/10/27 03:53:11;;;;;;;0.40;0.30;;;;;;;11.02;66.52;101068.98;111799;1192;95530;-76
2021/10/27 03:55:39;;;;;;;0.40;0.40;;;;;;;10.98;66.61;101073.50;111800;1192;96113;-77
2021/10/27 03:58:07;;;;;;;0.40;0.30;;;;;;;11.02;66.54;101073.80;111684;1192;139384;-76
2021/10/27 04:00:39;;;;;;;0.40;0.30;;;;;;;11.07;66.45;101071.05;111739;1192;108564;-75
2021/10/27 04:03:08;;;;;;;0.40;0.30;;;;;;;11.01;66.45;101072.56;111632;1192;137661;-75
2021/10/27 04:05:35;;;;;;;0.40;0.30;;;;;;;10.93;66.59;101072.71;111446;1192;94875;-76
2021/10/27 04:08:04;;;;;;;0.40;0.30;;;;;;;10.93;66.83;101071.83;111576;1192;138693;-75
2021/10/27 04:10:32;;;;;;;0.40;0.30;;;;;;;10.91;66.79;101071.14;111677;1192;109966;-74
2021/10/27 04:13:00;;;;;;;0.40;0.30;;;;;;;10.88;66.80;101072.08;111725;1192;96142;-76
2021/10/27 04:15:27;;;;;;;0.40;0.30;;;;;;;10.84;66.95;101068.05;111572;1192;139926;-76
2021/10/27 04:17:55;;;;;;;0.40;0.30;;;;;;;10.79;67.00;101069.38;111649;1192;108554;-75
2021/10/27 04:20:24;;;;;;;0.40;0.30;;;;;;;10.76;67.26;101069.96;111564;1192;138580;-76
2021/10/27 04:22:52;;;;;;;0.40;0.30;;;;;;;10.72;67.20;101073.39;111499;1192;95415;-76
2021/10/27 04:25:20;;;;;;;0.40;0.30;;;;;;;10.67;67.34;101075.98;111546;1194;95307;-76
2021/10/27 04:27:47;;;;;;;0.40;0.30;;;;;;;10.65;67.52;101079.19;111493;1192;138147;-75
2021/10/27 04:30:15;;;;;;;0.40;0.30;;;;;;;10.63;67.49;101079.94;111652;1192;108985;-76
2021/10/27 04:32:43;;;;;;;0.40;0.30;;;;;;;10.67;67.54;101078.47;111358;1192;139078;-76
2021/10/27 04:35:11;;;;;;;0.40;0.30;;;;;;;10.73;67.24;101081.73;111818;1192;94889;-76
2021/10/27 04:37:41;;;;;;;0.40;0.30;;;;;;;10.67;67.34;101081.47;111693;1192;108492;-76
2021/10/27 04:40:12;;;;;;;0.40;0.30;;;;;;;10.69;67.46;101085.00;111581;1192;138340;-75
2021/10/27 04:42:40;;;;;;;0.40;0.30;;;;;;;10.77;67.21;101083.80;111817;1193;95123;-73
2021/10/27 04:45:08;;;;;;;0.40;0.30;;;;;;;10.70;67.20;101083.55;111708;1192;137517;-75
2021/10/27 04:47:38;;;;;;;0.40;0.30;;;;;;;10.59;67.38;101088.35;111887;1192;108438;-75
2021/10/27 04:50:06;;;;;;;0.40;0.30;;;;;;;10.55;67.77;101090.89;111247;1195;138344;-75
2021/10/27 04:52:34;;;;;;;0.40;0.30;;;;;;;10.58;67.72;101090.48;111448;1195;95536;-75
2021/10/27 04:55:03;;;;;;;0.40;0.40;;;;;;;10.63;67.54;101085.63;111761;1192;94862;-75
2021/10/27 04:57:31;;;;;;;0.40;0.30;;;;;;;10.59;67.57;101084.98;111375;1194;137527;-76
2021/10/27 04:59:59;;;;;;;0.40;0.40;;;;;;;10.52;67.79;101082.23;111722;1192;108493;-75
2021/10/27 05:02:27;;;;;;;0.40;0.30;;;;;;;10.50;67.78;101083.50;111580;1192;139443;-75
2021/10/27 05:04:55;;;;;;;0.40;0.30;;;;;;;10.49;67.84;101081.92;111758;1192;94898;-74
2021/10/27 05:07:24;;;;;;;0.40;0.30;;;;;;;10.46;68.07;101080.73;111719;1200;108649;-75
2021/10/27 05:09:56;;;;;;;0.40;0.40;;;;;;;10.45;68.02;101081.80;111610;1192;139310;-74
2021/10/27 05:12:25;;;;;;;0.40;0.30;;;;;;;10.47;68.15;101081.43;111664;1192;95528;-75
2021/10/27 05:14:54;;;;;;;0.40;0.30;;;;;;;10.39;68.21;101080.13;111513;1192;138111;-76
2021/10/27 05:17:22;;;;;;;0.40;0.30;;;;;;;10.40;68.37;101087.38;111735;1192;107606;-75
2021/10/27 05:19:50;;;;;;;0.40;0.30;;;;;;;10.43;68.24;101090.00;111624;1192;109559;-76
2021/10/27 05:22:18;;;;;;;0.40;0.30;;;;;;;10.41;68.29;101087.55;111957;1192;139190;-76
2021/10/27 05:24:46;;;;;;;0.40;0.30;;;;;;;10.42;68.21;101087.70;111702;1192;94913;-77
2021/10/27 05:27:15;;;;;;;0.40;0.30;;;;;;;10.42;68.24;101089.66;111410;1193;138027;-76
2021/10/27 05:29:42;;;;;;;0.40;0.30;;;;;;;10.46;68.10;101088.36;111728;1192;108682;-76
2021/10/27 05:32:10;;;;;;;0.40;0.30;;;;;;;10.48;68.05;101091.88;111631;1192;138100;-76
2021/10/27 05:34:39;;;;;;;0.40;0.30;;;;;;;10.45;68.00;101095.13;111634;1193;94891;-76
2021/10/27 05:37:07;;;;;;;0.40;0.40;;;;;;;10.42;68.05;101100.84;111776;1192;108660;-76
2021/10/27 05:39:35;;;;;;;0.40;0.40;;;;;;;10.35;68.20;101107.31;111578;1193;138566;-77
2021/10/27 05:42:04;;;;;;;0.40;0.40;;;;;;;10.27;68.61;101110.61;111702;1192;95396;-78
2021/10/27 05:44:32;;;;;;;0.40;0.30;;;;;;;10.32;68.61;101104.33;111476;1192;138942;-75
2021/10/27 05:47:00;;;;;;;0.50;0.40;;;;;;;10.33;68.52;101102.54;111732;1192;109054;-76
2021/10/27 05:55:00;;;;;;;0.40;0.30;;;;;;;10.45;68.41;101103.29;111705;1192;138571;-76
2021/10/27 05:57:41;;;;;;;0.40;0.40;;;;;;;10.62;67.89;101112.09;111851;1192;138620;-75
2021/10/27 06:00:10;;;;;;;0.40;0.30;;;;;;;10.69;67.91;101114.11;112936;1193;108548;-76
2021/10/27 06:02:38;;;;;;;0.40;0.30;;;;;;;10.69;67.72;101112.00;111692;1193;138798;-78
2021/10/27 06:05:07;;;;;;;0.50;0.40;;;;;;;10.73;67.60;101116.90;111859;1192;95407;-74
2021/10/27 06:07:35;;;;;;;0.40;0.40;;;;;;;10.77;67.58;101115.78;111615;1193;107617;-75
2021/10/27 06:10:04;;;;;;;0.40;0.30;;;;;;;10.75;67.78;101118.65;111675;1192;138214;-77
2021/10/27 06:12:32;;;;;;;0.40;0.40;;;;;;;10.78;67.64;101120.04;111672;1192;95412;-76
2021/10/27 06:15:01;;;;;;;0.40;0.40;;;;;;;10.83;67.44;101122.97;111674;1192;137373;-75
2021/10/27 06:17:30;;;;;;;0.40;0.40;;;;;;;10.82;67.52;101123.15;111815;1192;108689;-76
2021/10/27 06:19:57;;;;;;;0.40;0.40;;;;;;;10.82;67.77;101119.59;111817;1192;139952;-76
2021/10/27 06:22:25;;;;;;;0.40;0.30;;;;;;;10.83;67.47;101122.60;111891;1192;94925;-76
2021/10/27 06:24:54;;;;;;;0.40;0.30;;;;;;;10.82;67.70;101126.16;111848;1192;95384;-76
2021/10/27 06:27:23;;;;;;;0.40;0.40;;;;;;;10.93;67.55;101126.89;111792;1192;137523;-75
2021/10/27 06:30:04;;;;;;;0.40;0.30;;;;;;;11.03;67.42;101126.55;111949;1192;108430;-76
2021/10/27 06:35:16;;;;;;;0.40;0.30;;;;;;;11.27;66.99;101139.30;111903;1192;95446;-76
2021/10/27 06:46:41;;;;;;;0.40;0.30;;;;;;;11.35;66.59;101157.30;111461;1192;139789;-76
2021/10/27 06:48:51;;;;;;;0.40;0.30;;;;;;;11.28;66.64;101159.73;111731;1192;106665;-77
2021/10/27 06:51:20;;;;;;;0.40;0.40;;;;;;;11.27;66.88;101160.12;111623;1192;139814;-76
2021/10/27 06:53:48;;;;;;;0.40;0.30;;;;;;;11.30;66.61;101164.15;111734;1192;95446;-76
2021/10/27 06:56:18;;;;;;;0.40;0.30;;;;;;;11.35;66.77;101162.09;111646;1192;138458;-74
2021/10/27 07:02:03;;;;;;;0.40;0.30;;;;;;;11.41;66.19;101163.96;111764;1192;109581;-76
2021/10/27 07:14:58;;;;;;;0.40;0.30;;;;;;;11.24;66.49;101160.50;111644;1193;94843;-76
2021/10/27 07:15:42;;;;;;;0.40;0.30;;;;;;;11.74;65.60;101161.21;111564;1192;139711;-76
2021/10/27 07:18:10;;;;;;;0.40;0.30;;;;;;;11.73;65.59;101156.08;111676;1192;96221;-76
2021/10/27 07:20:38;;;;;;;0.40;0.30;;;;;;;11.71;65.74;101156.83;111569;1192;138166;-75
2021/10/27 07:23:09;;;;;;;0.40;0.30;;;;;;;11.75;65.84;101161.38;111730;1192;109664;-75
2021/10/27 07:25:38;;;;;;;0.40;0.30;;;;;;;11.95;65.78;101165.64;111751;1193;95534;-78
2021/10/27 07:28:08;;;;;;;0.40;0.30;;;;;;;12.12;65.44;101167.47;111428;1195;138372;-75
2021/10/27 07:30:42;;;;;;;0.40;0.30;;;;;;;12.18;65.13;101160.73;111824;1192;108587;-76
2021/10/27 07:33:10;;;;;;;0.40;0.30;;;;;;;12.26;64.87;101159.88;111659;1192;138053;-76
2021/10/27 07:35:49;;;;;;;0.40;0.30;;;;;;;12.25;64.61;101158.29;112361;1192;94977;-76
2021/10/27 07:41:05;;;;;;;0.40;0.30;;;;;;;12.30;64.41;101167.09;111777;1193;108549;-76
2021/10/27 07:43:35;;;;;;;0.40;0.30;;;;;;;12.35;64.33;101170.34;111515;1196;109505;-77
2021/10/27 07:46:03;;;;;;;0.40;0.20;;;;;;;12.35;64.37;101172.66;111678;1192;140003;-78
2021/10/27 07:48:31;;;;;;;0.40;0.20;;;;;;;12.35;64.54;101173.56;111769;1192;95041;-76
2021/10/27 07:50:58;;;;;;;0.40;0.30;;;;;;;12.39;64.59;101171.70;111489;1194;137417;-76
2021/10/27 07:53:27;;;;;;;0.40;0.30;;;;;;;12.37;64.58;101177.61;111767;1192;109411;-76
2021/10/27 07:55:56;;;;;;;0.40;0.30;;;;;;;12.40;64.44;101173.30;111800;1192;96293;-76
2021/10/27 07:58:25;;;;;;;0.40;0.30;;;;;;;12.44;64.45;101175.34;111855;1192;138173;-75
2021/10/27 08:00:56;;;;;;;0.40;0.20;;;;;;;12.56;64.56;101174.89;111794;1192;107531;-76
2021/10/27 08:03:28;;;;;;;0.40;0.30;;;;;;;12.61;64.32;101176.39;112030;1192;138002;-76
2021/10/27 08:06:00;;;;;;;0.40;0.20;;;;;;;12.66;63.85;101178.60;111765;1192;94880;-76
2021/10/27 08:08:28;;;;;;;0.40;0.20;;;;;;;12.61;63.81;101181.02;111531;1193;137974;-76
2021/10/27 08:10:56;;;;;;;0.40;0.20;;;;;;;12.53;63.85;101180.30;111596;1197;108875;-75
2021/10/27 08:13:24;;;;;;;0.40;0.30;;;;;;;12.47;63.85;101179.38;111819;1192;108929;-76
2021/10/27 08:15:53;;;;;;;0.40;0.30;;;;;;;12.49;63.84;101179.34;111440;1195;138151;-76
2021/10/27 08:18:21;;;;;;;0.40;0.20;;;;;;;12.55;63.76;101177.78;111599;1196;95521;-76
2021/10/27 08:20:50;;;;;;;0.40;0.20;;;;;;;12.55;63.55;101178.48;111448;1193;137569;-77
2021/10/27 08:23:19;;;;;;;0.40;0.20;;;;;;;12.63;63.69;101175.45;111938;1192;109596;-77
2021/10/27 08:25:56;;;;;;;0.40;0.30;;;;;;;12.66;63.45;101174.33;112037;1192;95015;-75
2021/10/27 08:28:38;;;;;;;0.40;0.20;;;;;;;12.75;63.34;101174.83;111724;1193;138054;-76
2021/10/27 08:31:13;;;;;;;0.40;0.20;;;;;;;12.94;63.25;101162.98;111793;1192;108495;-77
2021/10/27 08:36:11;;;;;;;0.40;0.20;;;;;;;13.25;62.18;101173.64;111807;1192;95294;-76
2021/10/27 08:38:38;;;;;;;0.40;0.30;;;;;;;13.43;61.74;101175.35;111682;1192;137152;-78
2021/10/27 08:41:26;;;;;;;0.40;0.20;;;;;;;13.48;61.25;101177.73;111843;1192;109214;-77
2021/10/27 08:43:54;;;;;;;0.40;0.20;;;;;;;13.61;61.20;101181.86;111827;1192;108100;-77
2021/10/27 08:46:25;;;;;;;0.40;0.20;;;;;;;13.67;60.74;101181.15;111502;1192;139598;-78
2021/10/27 08:48:54;;;;;;;0.40;0.30;;;;;;;13.65;60.77;101179.08;111615;1193;94947;-77
2021/10/27 08:51:25;;;;;;;0.40;0.20;;;;;;;13.66;60.37;101177.25;111491;1192;138447;-77
2021/10/27 08:53:55;;;;;;;0.40;0.20;;;;;;;13.67;60.33;101175.80;111753;1193;108912;-78
2021/10/27 08:56:24;;;;;;;0.40;0.20;;;;;;;13.73;60.52;101172.97;111419;1193;137788;-77
2021/10/27 08:59:19;;;;;;;0.40;0.20;;;;;;;13.85;60.04;101175.33;111931;1193;94965;-76
2021/10/27 09:04:32;;;;;;;0.40;0.20;;;;;;;15.19;58.08;101163.63;111696;1192;138473;-76
2021/10/27 10:06:47;;;;;;;0.40;0.20;;;;;;;15.47;55.79;101154.08;111808;1192;94869;-76
2021/10/27 10:09:17;;;;;;;0.40;0.20;;;;;;;15.48;56.05;101157.82;111827;1192;139666;-76
2021/10/27 10:11:48;;;;;;;0.40;0.20;;;;;;;15.47;55.50;101158.05;111792;1192;108980;-76
2021/10/27 10:14:18;;;;;;;0.40;0.20;;;;;;;15.41;55.70;101160.23;111509;1193;138605;-76
2021/10/27 10:16:50;;;;;;;0.40;0.20;;;;;;;15.33;55.56;101156.36;111846;1192;94884;-77
2021/10/27 10:19:23;;;;;;;0.40;0.20;;;;;;;15.33;55.88;101156.71;111843;1192;109130;-77
2021/10/27 10:21:52;;;;;;;0.40;0.20;;;;;;;15.31;55.49;101154.63;111605;1193;137583;-77
2021/10/27 10:24:24;;;;;;;0.40;0.20;;;;;;;15.30;55.74;101153.97;111867;1192;94919;-76
2021/10/27 10:27:00;;;;;;;0.40;0.20;;;;;;;15.37;56.03;101151.59;111491;1193;138681;-76
2021/10/27 10:32:25;;;;;;;0.40;0.20;;;;;;;15.42;55.10;101148.02;111735;1192;138828;-77
2021/10/27 10:34:57;;;;;;;0.40;0.20;;;;;;;15.37;55.34;101151.41;111615;1193;95529;-76
2021/10/27 10:38:17;;;;;;;0.40;0.20;;;;;;;15.36;55.30;101148.58;111849;1192;95670;-77
2021/10/27 10:40:43;;;;;;;0.40;0.20;;;;;;;15.45;55.71;101147.72;111539;1193;138413;-77
2021/10/27 10:43:35;;;;;;;0.40;0.20;;;;;;;15.46;55.55;101148.41;111777;1193;108492;-77
2021/10/27 10:55:38;;;;;;;0.40;0.20;;;;;;;15.49;55.69;101148.84;111706;1193;138111;-77
2021/10/27 11:40:15;;;;;;;0.40;0.20;;;;;;;15.61;55.61;101128.02;111927;1193;137881;-77
2021/10/27 11:48:03;;;;;;;0.40;0.20;;;;;;;15.76;55.23;101124.95;111785;1192;108610;-77
2021/10/27 11:50:34;;;;;;;0.40;0.20;;;;;;;15.82;55.52;101124.80;111478;1193;138401;-76
2021/10/27 11:53:05;;;;;;;0.40;0.20;;;;;;;15.90;55.34;101125.23;111859;1193;94911;-76
2021/10/27 11:55:37;;;;;;;0.40;0.20;;;;;;;15.93;54.76;101122.42;111961;1192;94897;-77
2021/10/27 11:58:05;;;;;;;0.40;0.20;;;;;;;15.91;54.21;101120.89;111496;1193;139132;-76
2021/10/27 12:00:38;;;;;;;0.40;0.20;;;;;;;15.89;54.29;101118.45;111833;1192;108452;-77
2021/10/27 12:03:13;;;;;;;0.40;0.20;;;;;;;15.89;54.35;101121.34;111681;1193;138679;-77
2021/10/27 12:05:54;;;;;;;0.40;0.20;;;;;;;15.84;53.84;101114.68;111654;1193;95572;-77
2021/10/27 12:18:57;;;;;;;0.40;0.20;;;;;;;16.00;54.40;101110.16;111825;1192;108592;-75
2021/10/27 12:21:26;;;;;;;0.40;0.20;;;;;;;16.00;53.96;101114.46;111702;1193;137484;-76
2021/10/27 12:23:55;;;;;;;0.40;0.20;;;;;;;15.98;53.47;101117.38;111859;1192;95485;-76
2021/10/27 12:26:24;;;;;;;0.40;0.20;;;;;;;15.91;53.76;101113.92;111510;1192;137714;-76
2021/10/27 12:29:10;;;;;;;0.40;0.20;;;;;;;15.90;54.23;101111.63;111858;1193;109350;-76
2021/10/27 12:31:39;;;;;;;0.40;0.20;;;;;;;15.91;54.29;101112.84;112011;1193;109576;-76
2021/10/27 12:34:25;;;;;;;0.40;0.20;;;;;;;15.89;54.28;101109.50;111498;1193;137993;-76
2021/10/27 12:36:59;;;;;;;0.40;0.20;;;;;;;15.87;53.89;101105.10;111780;1193;95568;-76
2021/10/27 12:39:42;;;;;;;0.40;0.20;;;;;;;15.83;53.86;101105.77;111712;1193;137761;-76
2021/10/27 12:42:11;;;;;;;0.40;0.20;;;;;;;15.79;53.90;101106.08;111833;1192;109542;-76
2021/10/27 12:44:44;;;;;;;0.40;0.20;;;;;;;15.82;54.19;101109.04;111489;1193;137906;-75
2021/10/27 12:47:26;;;;;;;0.40;0.20;;;;;;;15.84;54.21;101108.05;111790;1192;94881;-75
2021/10/27 12:50:14;;;;;;;0.40;0.20;;;;;;;15.83;54.18;101106.47;111690;1193;108535;-76
2021/10/27 12:52:53;;;;;;;0.40;0.20;;;;;;;15.78;54.27;101110.05;111702;1193;137902;-76
2021/10/27 12:55:26;;;;;;;0.40;0.20;;;;;;;15.82;54.75;101106.53;112226;1193;95336;-76
2021/10/27 12:58:04;;;;;;;0.40;0.20;;;;;;;15.77;54.27;101105.41;111668;1193;137341;-76
2021/10/27 13:00:49;;;;;;;0.40;0.20;;;;;;;15.71;54.38;101103.14;111653;1193;108777;-77
2021/10/27 13:06:53;;;;;;;0.40;0.20;;;;;;;15.66;54.52;101101.19;111850;1193;95306;-76
2021/10/27 13:08:58;;;;;;;0.40;0.20;;;;;;;15.66;54.33;101079.70;111517;1193;139327;-77
2021/10/27 13:30:49;;;;;;;0.40;0.20;;;;;;;15.82;54.48;101094.89;111914;1192;96118;-77
2021/10/27 13:33:19;;;;;;;0.40;0.20;;;;;;;15.82;54.34;101097.23;111477;1193;139071;-78
2021/10/27 13:35:47;;;;;;;0.40;0.20;;;;;;;15.72;54.11;101097.00;111587;1193;108529;-78
2021/10/27 13:38:17;;;;;;;0.40;0.20;;;;;;;15.69;54.35;101096.91;111907;1193;94909;-77
2021/10/27 13:40:46;;;;;;;0.40;0.20;;;;;;;15.71;54.41;101099.71;111987;1192;137851;-78
2021/10/27 13:43:27;;;;;;;0.40;0.20;;;;;;;15.74;54.53;101102.33;111553;1193;107146;-77
2021/10/27 13:46:19;;;;;;;0.40;0.20;;;;;;;15.69;54.32;101102.67;111767;1192;138704;-77
2021/10/27 13:49:06;;;;;;;0.40;0.20;;;;;;;15.59;54.59;101104.27;111620;1193;94956;-76
2021/10/27 14:08:21;;;;;;;0.40;0.20;;;;;;;15.37;54.61;101102.18;111920;1192;108453;-77
2021/10/27 15:19:49;;;;;;;0.40;0.20;;;;;;;15.27;55.34;101067.12;111631;1192;94945;-76
2021/10/27 15:41:31;;;;;;;0.40;0.20;;;;;;;15.07;55.65;101067.29;111853;1193;137306;-77
2021/10/27 15:44:51;;;;;;;0.40;0.20;;;;;;;15.04;55.71;101065.92;111654;1193;109169;-77
2021/10/27 15:52:24;;;;;;;0.40;0.20;;;;;;;14.87;56.11;101070.78;111884;1192;138073;-79
2021/10/27 15:54:52;;;;;;;0.40;0.20;;;;;;;14.92;55.95;101072.77;111911;1193;109079;-79
2021/10/27 15:57:20;;;;;;;0.40;0.20;;;;;;;14.95;55.79;101077.33;111792;1192;137833;-76
2021/10/27 15:59:50;;;;;;;0.40;0.20;;;;;;;14.99;55.79;101074.14;111805;1193;95003;-77
2021/10/27 16:02:18;;;;;;;0.40;0.20;;;;;;;15.02;55.72;101075.30;111922;1192;94819;-77
2021/10/27 16:04:46;;;;;;;0.40;0.20;;;;;;;15.05;55.77;101077.17;111771;1192;138192;-77
2021/10/27 16:07:18;;;;;;;0.40;0.20;;;;;;;15.03;55.71;101075.98;111887;1193;108989;-77
2021/10/27 16:09:50;;;;;;;0.40;0.20;;;;;;;15.02;55.64;101071.00;111493;1193;139394;-77
2021/10/27 16:12:27;;;;;;;0.40;0.30;;;;;;;14.96;55.93;101068.92;112134;1193;94889;-77
2021/10/27 16:14:57;;;;;;;0.40;0.20;;;;;;;14.93;55.76;101069.34;111935;1192;108684;-76
2021/10/27 16:17:26;;;;;;;0.40;0.20;;;;;;;14.93;55.84;101072.75;112017;1192;138245;-77
2021/10/27 16:19:54;;;;;;;0.40;0.20;;;;;;;14.99;55.67;101071.30;111918;1192;94854;-78
2021/10/27 16:22:22;;;;;;;0.40;0.20;;;;;;;14.97;55.57;101069.77;111540;1193;137578;-76
2021/10/27 16:24:50;;;;;;;0.40;0.20;;;;;;;14.91;55.70;101075.30;111960;1192;107490;-76